createdAt,value
2024-01-11T00:03:25.886Z,99.66
2024-01-11T00:08:33.006Z,100.00
2024-01-11T00:13:40.793Z,100.00
2024-01-11T00:18:48.561Z,100.00
2024-01-11T00:23:53.930Z,100.00
2024-01-11T00:28:59.006Z,99.61
2024-01-11T00:34:07.039Z,97.78
2024-01-11T00:39:13.130Z,98.63
2024-01-11T00:44:18.652Z,98.65
2024-01-11T00:49:26.653Z,98.51
2024-01-11T00:54:31.934Z,99.62
2024-01-11T00:59:39.070Z,99.69
2024-01-11T01:04:57.929Z,99.43
2024-01-11T01:10:03.150Z,97.31
2024-01-11T01:15:11.206Z,98.72
2024-01-11T01:20:21.403Z,100.00
2024-01-11T01:25:27.032Z,100.00
2024-01-11T01:30:32.172Z,100.00
2024-01-11T01:35:40.193Z,100.00
2024-01-11T01:40:45.368Z,100.00
2024-01-11T01:45:52.571Z,100.00
2024-01-11T01:51:00.538Z,99.13
2024-01-11T01:56:09.972Z,99.56
2024-01-11T02:01:15.821Z,100.00
2024-01-11T02:06:26.382Z,100.00
2024-01-11T02:11:34.750Z,99.71
2024-01-11T02:16:40.492Z,98.03
2024-01-11T02:21:50.662Z,97.24
2024-01-11T02:27:06.065Z,100.00
2024-01-11T02:32:11.434Z,100.00
2024-01-11T02:37:17.241Z,100.00
2024-01-11T02:42:24.933Z,100.00
2024-01-11T02:47:31.166Z,99.48
2024-01-11T02:52:39.249Z,98.43
2024-01-11T02:57:47.011Z,97.45
2024-01-11T03:02:53.842Z,97.25
2024-01-11T03:07:58.932Z,98.51
2024-01-11T03:13:07.197Z,99.19
2024-01-11T03:18:12.818Z,98.93
2024-01-11T03:23:18.173Z,97.62
2024-01-11T03:28:26.066Z,97.67
2024-01-11T03:33:31.493Z,98.27
2024-01-11T03:38:38.920Z,97.59
2024-01-11T03:43:53.309Z,98.45
2024-01-11T03:49:00.278Z,100.00
2024-01-11T03:54:05.398Z,100.00
2024-01-11T03:59:15.660Z,100.00
2024-01-11T04:04:20.930Z,100.00
2024-01-11T04:09:26.052Z,100.00
2024-01-11T04:14:33.830Z,100.00
2024-01-11T04:19:38.918Z,100.00
2024-01-11T04:24:47.275Z,100.00
2024-01-11T04:29:54.886Z,100.00
2024-01-11T04:35:00.032Z,100.00
2024-01-11T04:40:05.294Z,100.00
2024-01-11T04:45:16.775Z,99.91
2024-01-11T04:50:23.109Z,100.00
2024-01-11T04:55:28.631Z,99.81
2024-01-11T05:00:36.347Z,99.03
2024-01-11T05:05:41.522Z,97.32
2024-01-11T05:10:46.899Z,98.37
2024-01-11T05:15:56.809Z,99.54
2024-01-11T05:21:01.940Z,99.12
2024-01-11T05:26:07.488Z,98.52
2024-01-11T05:31:17.045Z,98.46
2024-01-11T05:36:23.051Z,100.00
2024-01-11T05:41:28.287Z,100.00
2024-01-11T05:46:36.437Z,100.00
2024-01-11T05:51:41.838Z,100.00
2024-01-11T05:56:46.993Z,100.00
2024-01-11T06:01:55.055Z,100.00
2024-01-11T06:07:00.666Z,100.00
2024-01-11T06:12:05.725Z,100.00
2024-01-11T06:17:14.040Z,100.00
2024-01-11T06:22:19.865Z,100.00
2024-01-11T06:27:26.152Z,100.00
2024-01-11T06:32:34.296Z,99.85
2024-01-11T06:37:39.644Z,99.26
2024-01-11T06:42:44.793Z,98.21
2024-01-11T06:47:53.246Z,98.76
2024-01-11T06:52:58.615Z,98.62
2024-01-11T06:58:04.890Z,99.80
2024-01-11T07:03:13.201Z,100.00
2024-01-11T07:08:21.563Z,100.00
2024-01-11T07:13:26.848Z,100.00
2024-01-11T07:18:38.966Z,100.00
2024-01-11T07:23:44.713Z,100.00
2024-01-11T07:28:49.846Z,100.00
2024-01-11T07:33:57.718Z,100.00
2024-01-11T07:39:02.937Z,99.90
2024-01-11T07:44:08.362Z,98.11
2024-01-11T07:49:16.814Z,97.37
2024-01-11T07:54:22.038Z,97.57
2024-01-11T07:59:29.451Z,100.00
2024-01-11T08:04:40.311Z,100.00
2024-01-11T08:09:46.838Z,100.00
2024-01-11T08:14:52.461Z,99.28
2024-01-11T08:20:00.352Z,96.61
2024-01-11T08:25:06.789Z,97.78
2024-01-11T08:30:14.957Z,97.30
2024-01-11T08:35:22.925Z,96.79
2024-01-11T08:40:28.227Z,96.10
2024-01-11T08:45:33.671Z,95.28
2024-01-11T08:50:57.709Z,96.78
2024-01-11T08:56:06.752Z,96.52
2024-01-11T09:01:15.034Z,96.42
2024-01-11T09:06:23.080Z,98.42
2024-01-11T09:11:28.246Z,98.87
2024-01-11T09:16:34.229Z,97.39
2024-01-11T09:21:42.656Z,96.80
2024-01-11T09:26:47.970Z,96.93
2024-01-11T09:31:56.762Z,97.16
2024-01-11T09:37:05.105Z,96.75
2024-01-11T09:42:12.373Z,95.02
2024-01-11T09:47:21.704Z,94.03
2024-01-11T09:52:34.458Z,93.06
2024-01-11T09:57:45.537Z,92.00
2024-01-11T10:02:51.216Z,91.22
2024-01-11T10:07:59.169Z,88.39
2024-01-11T10:13:04.317Z,87.92
2024-01-11T10:18:10.108Z,87.84
2024-01-11T10:23:18.611Z,88.25
2024-01-11T10:28:26.333Z,89.29
2024-01-11T10:33:34.776Z,88.12
2024-01-11T10:38:43.917Z,87.65
2024-01-11T10:43:54.420Z,86.80
2024-01-11T10:49:02.623Z,84.72
2024-01-11T10:54:12.102Z,85.56
2024-01-11T10:59:20.924Z,85.21
2024-01-11T11:04:27.022Z,83.45
2024-01-11T11:09:38.245Z,83.38
2024-01-11T11:15:06.186Z,83.28
2024-01-11T11:20:26.797Z,80.04
2024-01-11T11:25:40.612Z,75.60
2024-01-11T11:30:50.145Z,73.25
2024-01-11T11:36:07.250Z,72.36
2024-01-11T11:41:22.975Z,69.19
2024-01-11T11:46:32.700Z,70.96
2024-01-11T11:51:43.905Z,70.13
2024-01-11T11:56:55.237Z,70.45
2024-01-11T12:02:04.988Z,70.73
2024-01-11T12:07:12.784Z,73.17
2024-01-11T12:12:22.728Z,72.68
2024-01-11T12:17:28.439Z,72.05
2024-01-11T12:22:35.853Z,72.21
2024-01-11T12:27:46.486Z,71.76
2024-01-11T12:32:57.061Z,71.63
2024-01-11T12:38:05.655Z,71.77
2024-01-11T12:43:16.687Z,70.51
2024-01-11T12:48:25.945Z,70.90
2024-01-11T12:53:39.881Z,69.71
2024-01-11T12:59:10.184Z,70.31
2024-01-11T13:04:16.484Z,69.25
2024-01-11T13:09:21.869Z,70.76
2024-01-11T13:14:30.421Z,71.46
2024-01-11T13:19:35.568Z,72.49
2024-01-11T13:24:40.731Z,73.46
2024-01-11T13:29:52.190Z,71.21
2024-01-11T13:35:00.542Z,69.89
2024-01-11T13:40:06.245Z,69.59
2024-01-11T13:45:16.135Z,69.53
2024-01-11T13:50:26.313Z,68.41
2024-01-11T13:55:40.051Z,69.89
2024-01-11T14:00:48.788Z,70.46
2024-01-11T14:05:54.323Z,72.52
2024-01-11T14:10:59.757Z,72.68
2024-01-11T14:16:19.857Z,73.33
2024-01-11T14:21:26.200Z,73.72
2024-01-11T14:26:36.358Z,73.90
2024-01-11T14:31:44.391Z,74.77
2024-01-11T14:36:52.198Z,75.24
2024-01-11T14:41:57.388Z,75.29
2024-01-11T14:47:05.661Z,75.56
2024-01-11T14:52:10.861Z,76.00
2024-01-11T14:57:16.651Z,76.10
2024-01-11T15:02:25.782Z,76.76
2024-01-11T15:07:32.362Z,77.52
2024-01-11T15:12:38.099Z,77.86
2024-01-11T15:17:47.086Z,78.79
2024-01-11T15:22:52.335Z,79.50
2024-01-11T15:27:57.951Z,80.28
2024-01-11T15:33:08.189Z,80.63
2024-01-11T15:38:13.471Z,80.45
2024-01-11T15:43:20.964Z,81.22
2024-01-11T15:48:28.788Z,81.33
2024-01-11T15:53:34.965Z,82.48
2024-01-11T15:58:40.761Z,83.10
2024-01-11T16:03:50.983Z,83.66
2024-01-11T16:08:57.414Z,84.37
2024-01-11T16:14:03.134Z,84.65
2024-01-11T16:19:13.320Z,83.81
2024-01-11T16:24:19.774Z,84.46
2024-01-11T16:29:25.212Z,86.82
2024-01-11T16:34:34.221Z,87.34
2024-01-11T16:39:41.680Z,85.93
2024-01-11T16:44:47.072Z,87.36
2024-01-11T16:49:55.367Z,87.90
2024-01-11T16:55:00.468Z,88.50
2024-01-11T17:00:08.858Z,87.47
2024-01-11T17:05:16.775Z,87.23
2024-01-11T17:10:23.826Z,87.77
2024-01-11T17:15:29.807Z,88.49
2024-01-11T17:20:37.549Z,88.65
2024-01-11T17:25:45.120Z,90.86
2024-01-11T17:30:50.309Z,92.63
2024-01-11T17:35:59.552Z,92.75
2024-01-11T17:41:07.546Z,93.52
2024-01-11T17:46:12.834Z,95.30
2024-01-11T17:51:20.599Z,98.15
2024-01-11T17:56:26.101Z,99.27
2024-01-11T18:01:34.048Z,98.10
2024-01-11T18:06:43.844Z,98.80
2024-01-11T18:11:51.722Z,98.52
2024-01-11T18:16:56.921Z,97.84
2024-01-11T18:22:05.732Z,100.00
2024-01-11T18:27:11.714Z,99.09
2024-01-11T18:32:16.887Z,100.00
2024-01-11T18:37:28.480Z,97.98
2024-01-11T18:42:33.940Z,99.22
2024-01-11T18:47:42.377Z,100.00
2024-01-11T18:52:51.845Z,100.00
2024-01-11T18:57:57.030Z,100.00
2024-01-11T19:03:02.938Z,100.00
2024-01-11T19:08:11.711Z,100.00
2024-01-11T19:13:19.777Z,100.00
2024-01-11T19:18:25.497Z,100.00
2024-01-11T19:23:36.714Z,100.00
2024-01-11T19:28:44.382Z,100.00
2024-01-11T19:33:50.039Z,100.00
2024-01-11T19:39:02.066Z,100.00
2024-01-11T19:44:09.645Z,100.00
2024-01-11T19:49:15.125Z,100.00
2024-01-11T19:54:23.490Z,100.00
2024-01-11T19:59:30.365Z,100.00
2024-01-11T20:04:36.048Z,100.00
2024-01-11T20:09:45.911Z,100.00
2024-01-11T20:14:54.110Z,100.00
2024-01-11T20:19:59.358Z,100.00
2024-01-11T20:25:07.712Z,100.00
2024-01-11T20:30:15.572Z,100.00
2024-01-11T20:35:21.423Z,100.00
2024-01-11T20:40:29.198Z,100.00
2024-01-11T20:45:34.711Z,100.00
2024-01-11T20:50:41.626Z,100.00
2024-01-11T20:55:56.318Z,100.00
2024-01-11T21:01:07.189Z,100.00
2024-01-11T21:06:14.620Z,100.00
2024-01-11T21:11:22.801Z,100.00
2024-01-11T21:16:28.076Z,100.00
2024-01-11T21:21:33.190Z,100.00
2024-01-11T21:26:41.293Z,100.00
2024-01-11T21:31:46.957Z,100.00
2024-01-11T21:36:52.092Z,100.00
2024-01-11T21:41:59.977Z,100.00
2024-01-11T21:47:05.201Z,100.00
2024-01-11T21:52:10.515Z,100.00
2024-01-11T21:57:18.237Z,100.00
2024-01-11T22:02:23.451Z,100.00
2024-01-11T22:07:28.550Z,100.00
2024-01-11T22:12:36.330Z,100.00
2024-01-11T22:17:41.551Z,100.00
2024-01-11T22:22:46.940Z,100.00
2024-01-11T22:27:57.079Z,100.00
2024-01-11T22:33:04.750Z,100.00
2024-01-11T22:38:10.107Z,100.00
2024-01-11T22:43:18.434Z,100.00
2024-01-11T22:48:23.710Z,100.00
2024-01-11T22:53:36.736Z,100.00
2024-01-11T22:58:46.983Z,100.00
2024-01-11T23:03:52.279Z,100.00
2024-01-11T23:08:57.487Z,100.00
2024-01-11T23:14:06.991Z,100.00
2024-01-11T23:19:12.082Z,100.00
2024-01-11T23:24:17.343Z,100.00
2024-01-11T23:29:26.233Z,100.00
2024-01-11T23:34:31.854Z,100.00
2024-01-11T23:39:37.174Z,100.00
2024-01-11T23:44:45.595Z,100.00
2024-01-11T23:49:50.823Z,100.00
2024-01-11T23:54:56.108Z,100.00
